Time;durP1;ratioP1;P1;durP2;ratioP2;P2;SDS_P1;SDS_P2;PMS_P1;PMS_P2;Temp;Humidity;BMP_temperature;BMP_pressure;BME280_temperature;BME280_humidity;BME280_pressure;Samples;Min_cycle;Max_cycle;Signal;HPM_P1;HPM_P2
2021/03/11 00:00:37;;;;;;;27.23;17.55;;;-0.60;99.80;;;;;;5083562;28;20045;-87
2021/03/11 00:03:13;;;;;;;23.63;16.13;;;-0.70;99.50;;;;;;5083922;28;20046;-87
2021/03/11 00:05:40;;;;;;;35.67;14.57;;;-0.70;99.60;;;;;;5093085;28;20051;-87
2021/03/11 00:08:08;;;;;;;20.63;13.95;;;-0.70;99.90;;;;;;5080470;28;20051;-87
2021/03/11 00:10:36;;;;;;;31.58;19.63;;;-0.60;99.90;;;;;;5081283;28;20118;-87
2021/03/11 00:13:04;;;;;;;28.38;19.38;;;-0.40;99.90;;;;;;5091408;28;20044;-87
2021/03/11 00:15:33;;;;;;;29.88;20.10;;;-0.50;99.90;;;;;;5086804;28;20054;-87
2021/03/11 00:18:00;;;;;;;29.98;16.92;;;-0.50;99.90;;;;;;5091147;27;20052;-87
2021/03/11 00:20:28;;;;;;;26.88;17.17;;;-0.50;99.70;;;;;;5089053;27;20048;-88
2021/03/11 00:22:56;;;;;;;25.20;16.90;;;-0.50;99.90;;;;;;5063154;28;20502;-87
2021/03/11 00:25:26;;;;;;;31.23;21.67;;;-0.50;99.90;;;;;;5054112;28;20040;-87
2021/03/11 00:27:53;;;;;;;25.08;20.25;;;-0.40;99.90;;;;;;5055911;28;20491;-87
2021/03/11 00:30:26;;;;;;;26.77;18.30;;;-0.50;99.90;;;;;;5058283;28;20051;-87
2021/03/11 00:32:54;;;;;;;27.35;15.50;;;-0.40;99.90;;;;;;5054522;28;20048;-87
2021/03/11 00:35:22;;;;;;;23.15;14.75;;;-0.50;99.90;;;;;;5071712;28;20051;-87
2021/03/11 00:37:50;;;;;;;25.83;17.15;;;-0.40;99.90;;;;;;5070895;28;20044;-87
2021/03/11 00:40:20;;;;;;;21.20;14.20;;;-0.40;99.90;;;;;;5064681;28;20045;-88
2021/03/11 00:42:47;;;;;;;22.38;16.42;;;-0.20;99.90;;;;;;5055307;28;20132;-87
2021/03/11 00:45:15;;;;;;;29.67;19.65;;;-0.30;99.90;;;;;;5072214;28;20045;-87
2021/03/11 00:47:43;;;;;;;22.65;16.55;;;-0.20;99.90;;;;;;5046528;28;20480;-87
2021/03/11 00:50:15;;;;;;;25.75;17.23;;;-0.20;99.90;;;;;;5072171;28;20045;-87
2021/03/11 00:52:43;;;;;;;26.88;15.25;;;-0.20;99.90;;;;;;5046299;28;20387;-87
2021/03/11 00:55:13;;;;;;;23.30;15.45;;;-0.10;99.90;;;;;;5058201;28;20037;-87
2021/03/11 00:57:41;;;;;;;25.98;18.85;;;-0.10;99.90;;;;;;5058237;28;20044;-86
2021/03/11 01:00:11;;;;;;;26.83;16.08;;;-0.10;99.90;;;;;;5084660;28;20089;-87
2021/03/11 01:03:00;;;;;;;24.10;15.30;;;-0.10;99.90;;;;;;5091033;28;20051;-87
2021/03/11 01:05:35;;;;;;;30.55;16.17;;;-0.10;99.90;;;;;;5090997;28;20041;-87
2021/03/11 01:08:10;;;;;;;22.23;14.43;;;0.00;99.90;;;;;;5075054;27;20040;-87
2021/03/11 01:10:38;;;;;;;21.10;13.57;;;0.10;99.80;;;;;;5083946;28;20044;-87
2021/03/11 01:13:05;;;;;;;21.52;15.23;;;0.10;99.60;;;;;;5080599;28;20048;-87
2021/03/11 01:15:39;;;;;;;22.15;12.70;;;0.10;99.40;;;;;;5086247;28;20078;-87
2021/03/11 01:18:08;;;;;;;28.02;16.42;;;0.10;99.30;;;;;;5092313;27;20048;-87
2021/03/11 01:20:35;;;;;;;19.67;15.13;;;0.10;99.20;;;;;;5076512;28;20040;-86
2021/03/11 01:23:03;;;;;;;19.92;14.75;;;0.10;99.10;;;;;;5080669;28;20430;-86
2021/03/11 01:25:30;;;;;;;18.33;11.13;;;0.10;99.20;;;;;;5077360;28;20071;-87
2021/03/11 01:27:57;;;;;;;21.65;13.35;;;0.10;99.20;;;;;;5082864;28;20102;-87
2021/03/11 01:30:24;;;;;;;25.83;15.00;;;0.10;99.20;;;;;;5085630;28;20495;-87
2021/03/11 01:32:51;;;;;;;20.55;12.75;;;0.10;99.20;;;;;;5090554;28;20060;-87
2021/03/11 01:35:18;;;;;;;20.70;13.45;;;0.10;99.20;;;;;;5091270;28;20083;-87
2021/03/11 01:37:45;;;;;;;19.10;13.68;;;0.10;99.10;;;;;;5088124;28;20045;-87
2021/03/11 01:40:12;;;;;;;25.55;19.08;;;0.00;99.00;;;;;;5072300;28;20059;-87
2021/03/11 01:42:39;;;;;;;29.45;17.13;;;0.00;98.90;;;;;;5058778;28;20044;-87
2021/03/11 01:45:08;;;;;;;23.23;12.02;;;-0.10;99.00;;;;;;5085151;28;20036;-86
2021/03/11 01:47:36;;;;;;;18.83;13.38;;;-0.10;99.30;;;;;;5094798;28;20076;-86
2021/03/11 01:50:09;;;;;;;21.67;13.43;;;-0.10;99.50;;;;;;5094334;28;20047;-86
2021/03/11 01:52:36;;;;;;;26.00;16.27;;;0.00;99.40;;;;;;5092843;28;20048;-86
2021/03/11 01:55:04;;;;;;;24.48;17.40;;;-0.10;99.30;;;;;;5094787;28;20044;-87
2021/03/11 01:57:32;;;;;;;23.92;15.15;;;-0.10;99.30;;;;;;5075791;28;20040;-87
2021/03/11 02:00:04;;;;;;;19.02;15.70;;;-0.20;99.30;;;;;;5056900;28;20049;-86
2021/03/11 02:02:43;;;;;;;22.35;15.18;;;-0.20;99.20;;;;;;5086225;28;20126;-86
2021/03/11 02:05:15;;;;;;;19.58;13.52;;;-0.20;99.00;;;;;;5094042;28;20516;-86
2021/03/11 02:07:43;;;;;;;17.30;13.00;;;-0.20;99.00;;;;;;5077308;28;20487;-86
2021/03/11 02:10:12;;;;;;;19.13;13.73;;;-0.30;99.00;;;;;;5077092;28;20060;-86
2021/03/11 02:12:57;;;;;;;18.95;13.15;;;-0.30;99.20;;;;;;5084698;28;20402;-86
2021/03/11 02:15:45;;;;;;;20.75;11.02;;;-0.30;99.30;;;;;;5082289;28;20044;-85
2021/03/11 02:18:22;;;;;;;15.25;9.93;;;-0.30;99.60;;;;;;5088373;28;20127;-85
2021/03/11 02:21:20;;;;;;;14.90;11.75;;;-0.30;99.70;;;;;;5059725;28;20098;-86
2021/03/11 02:24:08;;;;;;;13.93;10.95;;;-0.30;99.80;;;;;;5044367;28;20052;-86
2021/03/11 02:26:40;;;;;;;12.02;9.82;;;-0.30;99.90;;;;;;5036189;28;20076;-85
2021/03/11 02:29:09;;;;;;;11.98;10.40;;;-0.30;99.90;;;;;;5076040;28;20402;-85
2021/03/11 02:31:39;;;;;;;24.90;14.77;;;-0.30;99.70;;;;;;5077399;28;20040;-86
2021/03/11 02:34:12;;;;;;;15.73;11.18;;;-0.20;99.70;;;;;;5093655;28;20101;-86
2021/03/11 02:36:40;;;;;;;13.32;10.98;;;-0.10;99.50;;;;;;5094367;27;20463;-86
2021/03/11 02:39:09;;;;;;;13.27;8.85;;;-0.10;99.00;;;;;;5082302;28;20056;-85
2021/03/11 02:41:43;;;;;;;12.85;9.65;;;0.00;98.80;;;;;;5056505;28;20545;-86
2021/03/11 02:44:21;;;;;;;15.38;11.30;;;0.00;98.40;;;;;;5073356;28;20407;-85
2021/03/11 02:46:53;;;;;;;12.18;9.52;;;0.00;98.30;;;;;;5078775;28;20052;-85
2021/03/11 02:49:21;;;;;;;7.90;6.60;;;0.00;98.10;;;;;;5092916;28;20093;-86
2021/03/11 02:51:56;;;;;;;16.85;11.75;;;0.10;98.30;;;;;;5069009;28;20391;-86
2021/03/11 02:54:23;;;;;;;14.20;10.82;;;0.00;98.30;;;;;;5076341;28;20615;-86
2021/03/11 02:57:03;;;;;;;14.90;7.38;;;0.00;98.10;;;;;;5075694;28;20040;-86
2021/03/11 02:59:32;;;;;;;12.43;9.60;;;0.10;98.20;;;;;;5076795;28;20052;-85
2021/03/11 03:02:02;;;;;;;15.93;9.50;;;0.10;97.90;;;;;;5083400;28;20049;-85
2021/03/11 03:04:30;;;;;;;13.57;8.52;;;0.10;98.00;;;;;;5080744;28;20048;-86
2021/03/11 03:07:00;;;;;;;11.52;6.97;;;0.10;98.30;;;;;;5090103;28;20519;-86
2021/03/11 03:09:30;;;;;;;12.07;9.27;;;0.10;98.20;;;;;;5092746;28;20431;-86
2021/03/11 03:11:58;;;;;;;14.55;10.30;;;0.10;98.10;;;;;;5075754;27;20040;-85
2021/03/11 03:14:25;;;;;;;15.65;10.98;;;0.20;96.70;;;;;;5076980;28;20090;-86
2021/03/11 03:16:55;;;;;;;12.13;8.52;;;0.30;96.30;;;;;;5044384;28;20442;-86
2021/03/11 03:19:23;;;;;;;11.05;9.02;;;0.40;96.90;;;;;;5088755;28;20055;-86
2021/03/11 03:21:50;;;;;;;6.82;5.75;;;0.40;97.60;;;;;;5088081;28;20048;-85
2021/03/11 03:24:19;;;;;;;11.75;9.82;;;0.20;98.00;;;;;;5092793;27;20086;-85
2021/03/11 03:26:46;;;;;;;12.80;9.13;;;0.20;98.10;;;;;;5075992;28;20392;-84
2021/03/11 03:29:13;;;;;;;11.60;8.85;;;0.20;97.90;;;;;;5092624;28;20062;-84
2021/03/11 03:31:41;;;;;;;14.23;7.07;;;0.20;97.40;;;;;;5075663;28;20044;-86
2021/03/11 03:34:08;;;;;;;12.45;9.50;;;0.20;97.40;;;;;;5075508;28;20067;-85
2021/03/11 03:36:35;;;;;;;9.18;8.10;;;0.30;96.80;;;;;;5058659;28;20047;-85
2021/03/11 03:39:03;;;;;;;12.07;9.20;;;0.40;96.50;;;;;;5092668;28;20101;-85
2021/03/11 03:41:31;;;;;;;12.18;7.85;;;0.40;97.00;;;;;;5044048;28;20045;-85
2021/03/11 03:44:03;;;;;;;14.48;9.38;;;0.30;97.80;;;;;;5035326;28;20057;-85
2021/03/11 03:46:30;;;;;;;;;;;0.20;98.40;;;;;;5053045;28;20049;-85
2021/03/11 03:48:58;;;;;;;13.75;6.70;;;0.20;97.40;;;;;;5097747;28;19920;-85
2021/03/11 03:51:35;;;;;;;15.00;8.07;;;0.40;97.50;;;;;;5055015;28;20052;-85
2021/03/11 03:54:10;;;;;;;13.25;8.25;;;0.30;98.20;;;;;;5089315;28;20052;-86
2021/03/11 03:56:42;;;;;;;12.45;9.88;;;0.20;98.30;;;;;;5091934;28;20143;-86
2021/03/11 03:59:12;;;;;;;11.55;8.52;;;0.20;98.20;;;;;;5075359;28;20072;-85
2021/03/11 04:01:42;;;;;;;12.73;9.27;;;0.30;97.90;;;;;;5073941;28;20526;-85
2021/03/11 04:04:12;;;;;;;13.05;9.38;;;0.20;98.30;;;;;;5092269;28;20048;-85
2021/03/11 04:06:43;;;;;;;10.65;8.23;;;0.20;98.40;;;;;;5058737;28;20097;-85
2021/03/11 04:09:12;;;;;;;14.73;9.77;;;0.10;98.90;;;;;;5058493;28;20440;-85
2021/03/11 04:11:44;;;;;;;11.40;8.50;;;0.20;98.70;;;;;;5090890;28;20467;-85
2021/03/11 04:14:12;;;;;;;12.50;8.70;;;0.20;97.90;;;;;;5064882;28;20503;-86
2021/03/11 04:16:42;;;;;;;12.02;9.50;;;0.30;96.90;;;;;;5080246;28;20066;-86
2021/03/11 04:19:10;;;;;;;12.45;10.73;;;0.50;96.80;;;;;;5092468;28;20048;-86
2021/03/11 04:21:38;;;;;;;10.35;7.47;;;0.50;97.10;;;;;;5091115;28;20447;-86
2021/03/11 04:24:05;;;;;;;13.13;10.23;;;0.50;96.90;;;;;;5093005;28;20109;-86
2021/03/11 04:26:34;;;;;;;15.43;9.43;;;0.40;96.90;;;;;;5071514;28;20452;-85
2021/03/11 04:29:02;;;;;;;14.60;9.90;;;0.40;96.80;;;;;;5072852;28;20131;-86
2021/03/11 04:31:30;;;;;;;11.38;8.30;;;0.40;96.80;;;;;;5078883;28;20078;-86
2021/03/11 04:33:59;;;;;;;13.65;10.05;;;0.40;96.80;;;;;;5081328;28;20044;-86
2021/03/11 04:36:27;;;;;;;15.50;10.00;;;0.50;97.30;;;;;;5090344;28;20048;-86
2021/03/11 04:38:54;;;;;;;9.27;7.93;;;0.40;97.60;;;;;;5071747;28;20044;-86
2021/03/11 04:41:25;;;;;;;8.43;6.68;;;0.50;96.40;;;;;;5074153;28;20089;-86
2021/03/11 04:43:55;;;;;;;9.38;6.75;;;0.70;95.50;;;;;;5057090;28;20056;-85
2021/03/11 04:46:22;;;;;;;11.05;7.88;;;0.90;94.20;;;;;;5042161;28;20052;-85
2021/03/11 04:48:50;;;;;;;10.45;7.30;;;0.90;94.80;;;;;;5065814;28;20044;-85
2021/03/11 04:51:18;;;;;;;10.35;8.80;;;0.90;95.80;;;;;;5091499;28;20044;-85
2021/03/11 04:53:46;;;;;;;7.95;6.95;;;0.80;96.50;;;;;;5074496;28;20494;-85
2021/03/11 04:56:15;;;;;;;5.25;4.80;;;0.70;96.50;;;;;;5071258;28;20075;-85
2021/03/11 04:58:45;;;;;;;9.48;8.48;;;0.80;96.10;;;;;;5062814;28;20068;-85
2021/03/11 05:01:15;;;;;;;15.68;8.88;;;0.70;95.60;;;;;;5079626;28;20139;-85
2021/03/11 05:03:46;;;;;;;6.50;5.90;;;0.80;95.20;;;;;;5088253;28;20490;-85
2021/03/11 05:06:13;;;;;;;5.13;4.35;;;0.70;96.10;;;;;;5090110;28;20040;-85
2021/03/11 05:08:41;;;;;;;9.90;8.63;;;0.60;96.00;;;;;;5092287;27;20455;-84
2021/03/11 05:11:11;;;;;;;6.18;5.63;;;0.70;95.50;;;;;;5093145;28;20051;-85
2021/03/11 05:13:38;;;;;;;7.13;5.90;;;0.70;95.90;;;;;;5095285;28;20477;-85
2021/03/11 05:16:05;;;;;;;7.43;5.57;;;0.70;94.50;;;;;;5096092;27;20135;-86
2021/03/11 05:18:32;;;;;;;9.13;6.28;;;0.80;94.20;;;;;;5082061;28;20045;-86
2021/03/11 05:21:00;;;;;;;10.95;8.70;;;0.90;94.30;;;;;;5075265;28;20055;-86
2021/03/11 05:23:27;;;;;;;11.73;8.40;;;0.90;94.90;;;;;;5087530;28;20056;-86
2021/03/11 05:25:54;;;;;;;12.98;6.70;;;0.80;95.50;;;;;;5075918;28;20072;-86
2021/03/11 05:28:22;;;;;;;10.88;8.55;;;0.80;95.10;;;;;;5072264;28;20506;-86
2021/03/11 05:30:49;;;;;;;13.57;8.90;;;0.80;94.80;;;;;;5095366;28;20089;-86
2021/03/11 05:33:16;;;;;;;9.77;7.05;;;0.80;94.50;;;;;;5083795;28;20036;-86
2021/03/11 05:35:43;;;;;;;8.35;7.25;;;0.80;94.20;;;;;;5089076;28;20055;-85
2021/03/11 05:38:12;;;;;;;8.77;7.05;;;0.80;94.50;;;;;;5073497;28;20091;-85
2021/03/11 05:40:40;;;;;;;10.60;9.45;;;0.90;93.80;;;;;;5078588;28;20428;-88
2021/03/11 05:43:19;;;;;;;10.18;8.23;;;0.90;93.70;;;;;;5094974;28;20048;-83
2021/03/11 05:45:46;;;;;;;8.00;6.75;;;1.00;93.60;;;;;;5099905;28;20046;-87
2021/03/11 05:48:17;;;;;;;7.32;6.03;;;1.10;91.90;;;;;;5096188;27;20392;-86
2021/03/11 05:50:44;;;;;;;11.20;7.78;;;1.10;93.70;;;;;;5090732;28;20056;-85
2021/03/11 05:53:23;;;;;;;10.15;6.85;;;1.10;93.70;;;;;;5095322;28;20083;-85
2021/03/11 05:55:50;;;;;;;9.00;6.28;;;1.10;93.40;;;;;;5084371;28;20146;-85
2021/03/11 05:58:25;;;;;;;6.70;5.25;;;1.00;92.70;;;;;;5067455;28;20457;-83
2021/03/11 06:00:57;;;;;;;7.30;5.53;;;1.10;92.70;;;;;;5087213;28;20722;-83
2021/03/11 06:03:31;;;;;;;7.30;5.30;;;1.10;92.20;;;;;;5074271;28;20052;-82
2021/03/11 06:06:02;;;;;;;9.77;6.03;;;1.20;91.50;;;;;;5088569;28;20128;-83
2021/03/11 06:08:31;;;;;;;8.93;6.85;;;1.20;92.10;;;;;;5092307;28;20119;-83
2021/03/11 06:11:02;;;;;;;7.10;5.68;;;1.30;91.90;;;;;;5076510;28;20044;-82
2021/03/11 06:13:32;;;;;;;9.57;6.07;;;1.30;92.10;;;;;;5084770;28;20040;-82
2021/03/11 06:20:58;;;;;;;9.38;7.43;;;1.40;91.20;;;;;;5015379;28;20119;-82
2021/03/11 06:24:21;;;;;;;7.55;5.07;;;1.50;90.50;;;;;;5006622;27;20044;-82
2021/03/11 06:26:57;;;;;;;12.13;6.85;;;1.50;89.80;;;;;;5048090;28;20340;-82
2021/03/11 06:29:40;;;;;;;8.63;6.28;;;1.50;89.20;;;;;;5089466;28;20047;-84
2021/03/11 06:32:08;;;;;;;7.05;6.30;;;1.70;89.90;;;;;;5087713;28;20071;-79
2021/03/11 06:34:44;;;;;;;10.23;6.55;;;1.70;88.50;;;;;;5094218;28;20044;-79
2021/03/11 06:37:13;;;;;;;6.82;5.35;;;1.80;87.70;;;;;;5090977;28;20127;-80
2021/03/11 06:39:44;;;;;;;6.18;5.03;;;1.80;88.00;;;;;;5070661;28;20055;-79
2021/03/11 06:42:24;;;;;;;6.28;5.38;;;1.90;86.50;;;;;;5085102;28;20056;-79
2021/03/11 06:44:58;;;;;;;8.50;5.25;;;2.00;86.30;;;;;;5046525;28;20048;-83
2021/03/11 06:47:25;;;;;;;6.50;5.78;;;2.00;86.20;;;;;;5093105;28;20797;-78
2021/03/11 06:50:00;;;;;;;5.65;4.55;;;2.10;85.50;;;;;;5092734;28;20127;-79
2021/03/11 06:52:29;;;;;;;6.85;6.15;;;2.10;84.10;;;;;;5085841;28;20094;-78
2021/03/11 06:55:03;;;;;;;3.63;3.33;;;2.20;85.20;;;;;;5091397;28;20054;-79
2021/03/11 06:57:33;;;;;;;5.78;4.78;;;2.30;86.90;;;;;;5089961;27;20075;-78
2021/03/11 07:00:18;;;;;;;8.50;7.57;;;2.20;85.40;;;;;;5085071;28;20048;-79
2021/03/11 07:02:56;;;;;;;12.90;6.88;;;2.30;86.20;;;;;;5079583;28;20070;-78
2021/03/11 07:05:25;;;;;;;6.22;5.40;;;2.30;84.80;;;;;;5089687;27;20039;-79
2021/03/11 07:08:05;;;;;;;4.67;3.90;;;2.40;87.10;;;;;;5086361;28;20094;-79
2021/03/11 07:10:32;;;;;;;7.03;5.30;;;2.40;83.60;;;;;;5070906;28;21581;-79
2021/03/11 07:13:01;;;;;;;4.00;3.70;;;2.60;85.60;;;;;;5091983;28;20403;-82
2021/03/11 07:15:32;;;;;;;7.88;6.35;;;2.70;82.20;;;;;;5088923;28;20048;-84
2021/03/11 07:18:04;;;;;;;13.25;5.47;;;2.70;86.20;;;;;;5088470;28;20546;-79
2021/03/11 07:20:33;;;;;;;6.90;3.47;;;2.80;85.20;;;;;;5091113;27;20064;-81
2021/03/11 07:23:11;;;;;;;7.55;6.03;;;2.90;86.20;;;;;;5088750;28;20715;-78
2021/03/11 07:25:43;;;;;;;7.80;5.53;;;2.90;87.10;;;;;;5091698;28;20047;-78
2021/03/11 07:28:25;;;;;;;5.95;4.78;;;2.90;90.00;;;;;;5084411;28;20549;-79
2021/03/11 07:31:04;;;;;;;6.95;6.20;;;2.90;88.10;;;;;;5088793;28;20055;-78
2021/03/11 07:33:34;;;;;;;5.03;4.63;;;3.00;89.30;;;;;;5087965;28;20040;-81
2021/03/11 07:36:09;;;;;;;8.68;6.88;;;3.00;85.10;;;;;;5090262;28;20127;-82
2021/03/11 07:38:37;;;;;;;9.18;5.05;;;3.10;86.00;;;;;;5088134;28;20064;-80
2021/03/11 07:41:08;;;;;;;5.07;4.53;;;3.20;86.30;;;;;;5081185;28;20058;-81
2021/03/11 07:43:36;;;;;;;8.57;4.65;;;3.20;86.00;;;;;;5083437;28;20048;-81
2021/03/11 07:46:07;;;;;;;6.13;4.80;;;3.30;86.50;;;;;;5082541;28;20064;-82
2021/03/11 07:48:38;;;;;;;8.18;5.57;;;3.40;88.80;;;;;;5088121;27;20075;-82
2021/03/11 07:51:06;;;;;;;7.40;5.80;;;3.40;84.90;;;;;;5075071;28;20242;-81
2021/03/11 07:53:40;;;;;;;6.55;4.80;;;3.50;87.00;;;;;;5090847;28;20066;-81
2021/03/11 07:56:08;;;;;;;5.13;4.63;;;3.50;84.70;;;;;;5090458;27;20426;-81
2021/03/11 07:58:46;;;;;;;11.57;4.50;;;3.60;85.80;;;;;;5074935;28;20128;-81
2021/03/11 08:01:15;;;;;;;6.60;4.90;;;3.60;84.60;;;;;;5085259;28;20618;-81
2021/03/11 08:03:47;;;;;;;5.00;4.15;;;3.60;85.30;;;;;;5066471;28;20129;-81
2021/03/11 08:06:25;;;;;;;4.80;4.40;;;3.60;83.70;;;;;;5051851;28;20580;-81
2021/03/11 08:08:54;;;;;;;4.85;4.43;;;3.60;85.30;;;;;;5075452;28;20514;-81
2021/03/11 08:11:37;;;;;;;6.25;4.03;;;3.70;81.30;;;;;;5079143;28;20045;-81
2021/03/11 08:14:24;;;;;;;5.70;5.10;;;3.80;84.40;;;;;;5070225;28;20052;-81
2021/03/11 08:16:53;;;;;;;6.70;4.75;;;3.80;83.70;;;;;;5071086;28;20193;-81
2021/03/11 08:19:37;;;;;;;3.97;3.47;;;3.90;81.90;;;;;;5071422;28;20050;-81
2021/03/11 08:22:04;;;;;;;5.03;4.55;;;3.90;81.90;;;;;;5052966;28;20086;-80
2021/03/11 08:24:45;;;;;;;7.50;4.70;;;3.90;82.30;;;;;;5070010;28;20055;-80
2021/03/11 08:27:43;;;;;;;5.75;3.90;;;3.90;82.10;;;;;;5070885;28;20050;-80
2021/03/11 08:30:37;;;;;;;5.93;4.32;;;3.80;82.50;;;;;;5045246;28;20880;-81
2021/03/11 08:33:29;;;;;;;7.47;3.78;;;3.80;81.50;;;;;;5067297;28;20390;-80
2021/03/11 08:35:58;;;;;;;7.20;4.95;;;3.90;82.30;;;;;;5061069;28;20131;-80
2021/03/11 08:38:30;;;;;;;5.53;4.90;;;4.00;84.40;;;;;;5066604;28;20056;-80
2021/03/11 08:41:11;;;;;;;4.72;3.55;;;4.10;84.60;;;;;;5048921;28;20036;-80
2021/03/11 08:43:41;;;;;;;4.78;4.18;;;4.20;84.80;;;;;;5063572;28;20052;-80
2021/03/11 08:46:16;;;;;;;6.07;4.97;;;4.30;79.50;;;;;;5055615;28;20044;-80
2021/03/11 08:48:56;;;;;;;4.78;4.28;;;4.40;85.90;;;;;;5063444;28;20094;-81
2021/03/11 08:51:24;;;;;;;5.97;5.22;;;4.50;82.20;;;;;;5068708;28;20041;-80
2021/03/11 08:53:53;;;;;;;6.47;4.70;;;4.50;82.20;;;;;;5060247;28;20037;-81
2021/03/11 08:56:21;;;;;;;6.97;5.47;;;4.50;82.60;;;;;;5067002;28;20047;-81
2021/03/11 08:59:01;;;;;;;6.10;5.30;;;4.50;83.10;;;;;;5090942;28;20079;-81
2021/03/11 09:01:29;;;;;;;7.40;5.45;;;4.60;80.10;;;;;;5087615;28;20059;-80
2021/03/11 09:03:58;;;;;;;7.22;5.72;;;4.70;82.60;;;;;;5089455;28;20044;-81
2021/03/11 09:06:50;;;;;;;7.93;5.10;;;4.80;86.10;;;;;;5082170;28;20109;-80
2021/03/11 09:09:37;;;;;;;7.78;7.10;;;5.00;83.60;;;;;;5078989;28;20043;-80
2021/03/11 09:12:31;;;;;;;6.75;6.00;;;5.20;85.60;;;;;;5070959;28;20118;-80
2021/03/11 09:15:08;;;;;;;5.72;5.28;;;5.30;86.20;;;;;;5083909;28;20095;-80
2021/03/11 09:17:39;;;;;;;5.60;4.43;;;5.40;83.60;;;;;;5090131;28;20490;-80
2021/03/11 09:20:13;;;;;;;4.67;4.13;;;5.50;81.20;;;;;;5084430;28;20127;-80
2021/03/11 09:22:46;;;;;;;9.23;4.97;;;5.60;77.80;;;;;;5081315;28;20399;-80
2021/03/11 09:25:15;;;;;;;6.45;4.50;;;5.50;78.20;;;;;;5086177;28;20086;-80
2021/03/11 09:28:07;;;;;;;5.80;5.00;;;5.60;81.20;;;;;;5078800;28;20766;-80
2021/03/11 09:30:41;;;;;;;9.85;4.97;;;5.60;82.60;;;;;;5068621;28;20092;-80
2021/03/11 09:33:22;;;;;;;6.55;4.53;;;5.90;82.20;;;;;;5085706;28;20040;-81
2021/03/11 09:35:51;;;;;;;4.72;4.13;;;6.00;76.20;;;;;;5084378;28;20068;-80
2021/03/11 09:38:24;;;;;;;5.13;3.70;;;6.10;78.40;;;;;;5090233;28;20059;-80
2021/03/11 09:41:01;;;;;;;5.22;3.70;;;6.30;77.60;;;;;;5090094;28;20051;-80
2021/03/11 09:43:39;;;;;;;8.13;3.92;;;6.30;73.90;;;;;;5088280;28;20059;-80
2021/03/11 09:46:08;;;;;;;6.15;3.70;;;6.30;73.40;;;;;;5105370;28;20052;-80
2021/03/11 09:48:44;;;;;;;4.18;3.05;;;6.30;73.90;;;;;;5090348;28;20688;-80
2021/03/11 09:51:21;;;;;;;4.78;3.90;;;6.40;75.10;;;;;;5089951;28;20494;-81
2021/03/11 09:53:59;;;;;;;7.47;4.60;;;6.30;77.60;;;;;;5089450;28;20106;-81
2021/03/11 09:56:39;;;;;;;4.57;4.15;;;6.40;77.60;;;;;;5084171;28;20093;-81
2021/03/11 09:59:13;;;;;;;6.32;4.65;;;6.50;77.10;;;;;;5093770;28;20047;-81
2021/03/11 10:01:53;;;;;;;5.30;4.63;;;6.50;77.80;;;;;;5092835;28;20047;-81
2021/03/11 10:04:24;;;;;;;6.78;4.13;;;6.50;75.70;;;;;;5086609;28;20063;-80
2021/03/11 10:06:54;;;;;;;5.50;4.63;;;6.60;77.10;;;;;;5094446;28;20510;-83
2021/03/11 10:09:23;;;;;;;5.60;4.55;;;6.70;78.00;;;;;;5086919;28;20385;-80
2021/03/11 10:11:53;;;;;;;3.17;2.78;;;6.70;75.70;;;;;;5092926;28;20486;-81
2021/03/11 10:14:27;;;;;;;5.15;3.75;;;6.90;75.40;;;;;;5071956;28;20042;-80
2021/03/11 10:16:56;;;;;;;4.50;4.10;;;6.90;75.20;;;;;;5072721;28;20178;-80
2021/03/11 10:19:27;;;;;;;6.18;4.90;;;7.10;77.60;;;;;;5066987;28;20086;-81
2021/03/11 10:21:56;;;;;;;;;;;7.10;76.00;;;;;;5055604;28;20131;-81
2021/03/11 10:24:39;;;;;;;7.63;4.53;;;7.20;77.00;;;;;;5074072;28;20311;-80
2021/03/11 10:27:27;;;;;;;4.30;3.90;;;7.20;74.50;;;;;;5074150;28;20048;-80
2021/03/11 10:30:12;;;;;;;6.88;3.55;;;7.20;76.90;;;;;;5086256;28;20048;-81
2021/03/11 10:32:43;;;;;;;5.78;3.72;;;7.20;76.10;;;;;;5067574;28;20041;-81
2021/03/11 10:35:23;;;;;;;5.25;4.28;;;7.30;74.50;;;;;;5066896;28;20410;-80
2021/03/11 10:37:50;;;;;;;5.05;4.22;;;7.40;78.80;;;;;;5070500;28;20430;-80
2021/03/11 10:40:24;;;;;;;5.88;3.70;;;7.50;74.70;;;;;;5071361;28;20142;-81
2021/03/11 10:42:54;;;;;;;5.38;4.47;;;7.60;75.30;;;;;;5073096;28;20048;-81
2021/03/11 10:45:27;;;;;;;5.03;4.53;;;7.70;75.50;;;;;;5066573;28;20136;-81
2021/03/11 10:48:04;;;;;;;7.18;5.70;;;7.80;76.60;;;;;;5066528;28;20052;-81
2021/03/11 10:50:46;;;;;;;5.68;4.18;;;7.90;73.40;;;;;;5048544;28;20425;-82
2021/03/11 10:53:17;;;;;;;4.35;3.95;;;7.90;72.40;;;;;;5082233;28;20490;-81
2021/03/11 10:55:47;;;;;;;4.17;3.93;;;8.00;72.80;;;;;;5093245;28;20543;-81
2021/03/11 10:58:27;;;;;;;7.75;4.13;;;8.20;75.00;;;;;;5090692;27;20047;-80
2021/03/11 11:01:17;;;;;;;4.43;4.03;;;8.30;75.20;;;;;;5081322;28;20043;-81
2021/03/11 11:03:47;;;;;;;6.32;5.43;;;8.40;75.20;;;;;;5084554;28;20056;-81
2021/03/11 11:06:25;;;;;;;5.90;3.75;;;8.50;73.70;;;;;;5092611;27;20043;-81
2021/03/11 11:08:52;;;;;;;4.75;4.28;;;8.60;74.40;;;;;;5083641;28;20075;-81
2021/03/11 11:11:20;;;;;;;4.00;3.65;;;8.90;75.70;;;;;;5092229;28;20048;-80
2021/03/11 11:13:49;;;;;;;18.83;5.70;;;9.10;73.60;;;;;;5081111;27;20037;-82
2021/03/11 11:16:18;;;;;;;7.47;4.47;;;9.20;71.40;;;;;;5073427;28;20076;-81
2021/03/11 11:18:47;;;;;;;6.63;4.43;;;9.40;70.50;;;;;;5082559;28;20052;-81
2021/03/11 11:21:15;;;;;;;7.30;3.28;;;9.50;71.70;;;;;;5084607;28;20581;-81
2021/03/11 11:23:44;;;;;;;5.75;4.45;;;9.50;72.00;;;;;;5077878;28;20102;-81
2021/03/11 11:26:11;;;;;;;4.43;4.00;;;9.60;70.80;;;;;;5080336;28;20057;-81
2021/03/11 11:28:40;;;;;;;3.53;3.22;;;9.80;74.40;;;;;;5086090;28;20372;-81
2021/03/11 11:31:07;;;;;;;4.53;3.88;;;10.20;68.80;;;;;;5085981;28;20052;-82
2021/03/11 11:33:36;;;;;;;2.90;2.70;;;10.50;68.70;;;;;;5081035;28;20561;-82
2021/03/11 11:36:06;;;;;;;3.78;2.83;;;10.80;67.70;;;;;;5092294;28;20058;-81
2021/03/11 11:38:34;;;;;;;3.80;3.28;;;11.00;71.10;;;;;;5092760;28;20048;-81
2021/03/11 11:41:01;;;;;;;4.07;3.40;;;11.20;68.10;;;;;;5076896;28;20040;-82
2021/03/11 11:43:38;;;;;;;2.72;2.53;;;11.30;66.00;;;;;;5091520;28;20139;-82
2021/03/11 11:46:05;;;;;;;2.80;2.60;;;11.40;66.20;;;;;;5087689;28;20048;-83
2021/03/11 11:48:33;;;;;;;3.47;3.22;;;11.40;66.10;;;;;;5091106;28;20044;-82
2021/03/11 11:51:01;;;;;;;3.53;2.22;;;11.50;67.20;;;;;;5074090;28;20074;-82
2021/03/11 11:53:28;;;;;;;3.75;3.35;;;11.50;67.90;;;;;;5078502;28;20052;-82
2021/03/11 11:55:55;;;;;;;3.35;2.45;;;11.60;67.20;;;;;;5078013;28;20089;-82
2021/03/11 11:58:23;;;;;;;4.80;2.72;;;11.80;67.90;;;;;;5053500;28;20086;-82
2021/03/11 12:00:51;;;;;;;3.05;1.90;;;11.80;65.90;;;;;;5075591;28;20101;-81
2021/03/11 12:03:18;;;;;;;1.95;1.80;;;12.00;64.80;;;;;;5068514;28;20399;-81
2021/03/11 12:05:45;;;;;;;1.33;0.65;;;12.40;66.30;;;;;;5054224;28;20033;-80
2021/03/11 12:08:13;;;;;;;0.85;0.85;;;13.30;62.90;;;;;;5068841;28;20045;-80
2021/03/11 12:10:40;;;;;;;1.40;1.02;;;13.90;59.70;;;;;;5068849;28;20155;-81
2021/03/11 12:13:07;;;;;;;0.65;0.60;;;14.30;58.30;;;;;;5063505;28;20139;-80
2021/03/11 12:15:34;;;;;;;0.60;0.55;;;14.60;58.20;;;;;;5070655;28;20063;-81
2021/03/11 12:18:03;;;;;;;0.73;0.57;;;14.70;55.70;;;;;;5071406;28;20091;-81
2021/03/11 12:20:34;;;;;;;1.73;1.00;;;14.90;54.40;;;;;;5075541;28;20058;-81
2021/03/11 12:23:03;;;;;;;1.33;1.02;;;15.00;55.00;;;;;;5082947;28;20059;-78
2021/03/11 12:25:30;;;;;;;1.05;0.75;;;15.00;55.30;;;;;;5081170;28;20049;-81
2021/03/11 12:27:57;;;;;;;1.30;0.50;;;15.30;57.60;;;;;;5080935;28;20056;-81
2021/03/11 12:30:24;;;;;;;0.60;0.60;;;15.20;54.10;;;;;;5090784;28;20044;-80
2021/03/11 12:32:52;;;;;;;1.30;1.13;;;15.20;56.40;;;;;;5090931;28;20560;-81
2021/03/11 12:35:19;;;;;;;0.50;0.50;;;15.10;55.80;;;;;;5090016;28;20440;-82
2021/03/11 12:37:47;;;;;;;0.57;0.57;;;15.10;53.70;;;;;;5090533;28;20130;-78
2021/03/11 12:40:18;;;;;;;1.00;0.90;;;15.10;54.50;;;;;;5082321;28;20051;-81
2021/03/11 12:42:49;;;;;;;0.77;0.73;;;15.20;55.30;;;;;;5082092;28;20040;-81
2021/03/11 12:45:21;;;;;;;2.92;0.52;;;15.20;55.90;;;;;;5082493;28;20074;-78
2021/03/11 12:47:49;;;;;;;0.47;0.47;;;15.30;54.20;;;;;;5090436;28;20132;-83
2021/03/11 12:50:20;;;;;;;2.13;1.15;;;15.40;54.70;;;;;;5063675;28;20049;-83
2021/03/11 12:52:47;;;;;;;1.80;0.65;;;15.40;55.80;;;;;;5071583;28;20130;-82
2021/03/11 12:55:14;;;;;;;2.30;1.10;;;15.30;55.00;;;;;;5084041;28;20048;-81
2021/03/11 12:57:41;;;;;;;0.57;0.57;;;15.20;53.30;;;;;;5077028;28;20064;-78
2021/03/11 13:00:21;;;;;;;1.02;0.93;;;15.20;54.60;;;;;;5089064;28;20044;-80
2021/03/11 13:03:03;;;;;;;1.20;0.98;;;15.20;54.60;;;;;;5090427;28;20047;-80
2021/03/11 13:05:35;;;;;;;0.82;0.82;;;15.00;56.20;;;;;;5090549;27;20040;-79
2021/03/11 13:08:05;;;;;;;2.13;0.77;;;15.10;55.10;;;;;;5088960;27;20047;-80
2021/03/11 13:10:33;;;;;;;1.85;0.88;;;15.10;53.30;;;;;;5088719;28;20059;-78
2021/03/11 13:13:01;;;;;;;0.50;0.50;;;15.00;54.70;;;;;;5079032;28;20514;-81
2021/03/11 13:15:33;;;;;;;1.45;0.70;;;15.00;53.90;;;;;;5088117;28;20047;-81